Observations for MANCHESTER INTL, United Kingdom (EGCC)

EGCC 140820Z AUTO 21004KT 9999 OVC039 16/14 Q1014 NOSIG 
EGCC 140750Z AUTO VRB03KT 9999 OVC037 15/13 Q1014 NOSIG 
EGCC 140720Z AUTO 17004KT 130V210 9999 OVC036 15/13 Q1014 NOSIG 
EGCC 140650Z AUTO VRB03KT 9999 BKN024 BKN031 OVC038 14/13 Q1014 NOSIG   
EGCC 140620Z AUTO VRB03KT 9999 SCT028 BKN036 14/13 Q1014 NOSIG  
EGCC 140550Z AUTO 19004KT 130V220 9999 SCT041 14/13 Q1014 NOSIG 
EGCC 140520Z AUTO VRB03KT 9999 BKN039 13/13 Q1014 NOSIG 
EGCC 140450Z AUTO 17003KT 9999 FEW044 12/12 Q1013 NOSIG 
EGCC 140420Z AUTO 20002KT 9000 FEW040 12/12 Q1013 NOSIG 
EGCC 140350Z AUTO VRB02KT 8000 FEW015 BKN035 13/12 Q1013 NOSIG  
EGCC 140320Z AUTO VRB02KT 9999 OVC032 13/13 Q1013 NOSIG 
EGCC 140250Z AUTO VRB02KT 9999 OVC032 13/13 Q1013 NOSIG 
EGCC 140220Z AUTO 16003KT 9999 OVC034 13/13 Q1013 NOSIG 
EGCC 140150Z AUTO VRB02KT 9999 OVC034 13/13 Q1013 NOSIG 
EGCC 140120Z AUTO VRB02KT 9999 OVC033 13/13 Q1013 NOSIG 
EGCC 140050Z AUTO 15003KT 9999 OVC033 12/12 Q1013 NOSIG 
EGCC 140020Z AUTO VRB02KT 9999 FEW017 BKN034 12/12 Q1013 NOSIG  
EGCC 132350Z AUTO 18003KT 9999 SCT012 12/12 Q1013   
EGCC 132320Z AUTO 21002KT 9999 BKN014 12/12 Q1013   
EGCC 132250Z AUTO 24002KT 9999 NCD 13/12 Q1012 NOSIG
EGCC 132220Z AUTO 27004KT 9999 FEW032 14/13 Q1012 NOSIG 
EGCC 132150Z AUTO 26004KT 9999 FEW031 15/13 Q1012 NOSIG 
EGCC 132120Z AUTO 28003KT 9999 NCD 15/13 Q1012 NOSIG
EGCC 132050Z AUTO 28005KT 9999 FEW016 SCT020 16/13 Q1012 NOSIG  
EGCC 132020Z AUTO 28006KT 9999 BKN016 16/13 Q1011 NOSIG 
EGCC 131950Z AUTO 28007KT 9999 SCT016 BKN020 16/13 Q1011 NOSIG  
EGCC 131920Z AUTO 29007KT 9999 BKN016 17/13 Q1011 NOSIG 
EGCC 131850Z AUTO 28010KT 9999 BKN016 17/13 Q1011 NOSIG 
EGCC 131820Z AUTO 28009KT 9999 BKN015 OVC023 17/14 Q1010 NOSIG  
EGCC 131750Z AUTO 29010KT 9999 BKN015 OVC021 17/14 Q1010 NOSIG  
EGCC 131720Z AUTO 29008KT 9999 OVC013 17/14 Q1010 BECMG SCT013  
EGCC 131650Z AUTO 29010KT 9999 OVC013 17/14 Q1009 BECMG SCT013  
EGCC 131620Z AUTO 30011KT 9999 OVC012 17/14 Q1009 BECMG SCT012  
EGCC 131550Z AUTO 28012KT 9999 BKN011 OVC019 17/15 Q1009 TEMPO SCT011   
EGCC 131520Z AUTO 29012KT 9999 BKN012 OVC040 18/15 Q1009 TEMPO SCT012   
EGCC 131450Z 30012KT 9999 SCT012 BKN020 18/16 Q1008 TEMPO BKN012
EGCC 131420Z AUTO 28011KT 9999 BKN010 OVC018 18/16 Q1008 BECMG SCT010   
EGCC 131350Z 29011KT 9999 FEW006 BKN016 19/18 Q1008 NOSIG   
EGCC 131320Z 28009KT 9999 -RA SCT003 BKN008 17/17 Q1008 RERA TEMPO SCT008   
EGCC 131250Z 28010KT 3000 RA SCT004CB BKN007 BKN022 17/17 Q1008 BECMG 9999 NSW  
EGCC 131220Z AUTO 28009KT 9999 -RA BKN004/// OVC009/// //////CB 18/17 Q1008 RERA REDZ BECMG SCT005  
EGCC 131150Z 26007KT 5000 RADZ SCT005CB BKN009 17/17 Q1007  
EGCC 131120Z 25008KT 9999 4000N VCSH SCT008CB BKN016 18/16 Q1007 TEMPO SHRA BKN008  
EGCC 131050Z 26006KT 9999 5000N SCT008TCU BKN016 17/16 Q1007 TEMPO BKN008   
EGCC 131020Z 28006KT 9999 SCT009 BKN018 18/16 Q1007 TEMPO BKN009
EGCC 130950Z 28007KT 9999 SCT009 BKN018 17/15 Q1007 TEMPO BKN009
EGCC 130920Z 28007KT 9999 SCT008 BKN015 17/15 Q1007 TEMPO BKN008
EGCC 130850Z 30008KT 270V330 9999 SCT008 BKN018 17/15 Q1006 TEMPO BKN008
EGCC 130820Z 27007KT 9999 SCT008 BKN018 17/15 Q1006 TEMPO BKN008
EGCC 130750Z 27007KT 9999 SCT009 BKN017 16/14 Q1006